createdAt,value
2018-06-04T04:10:05.273Z,16.86
2018-06-04T04:10:30.754Z,16.74
2018-06-04T04:10:56.203Z,16.78
2018-06-04T04:11:21.828Z,16.84
2018-06-04T04:11:47.300Z,16.86
2018-06-04T04:12:12.752Z,16.83
2018-06-04T04:12:38.283Z,16.87
2018-06-04T04:13:03.729Z,16.84
2018-06-04T04:13:29.171Z,16.84
2018-06-04T04:13:54.636Z,16.84
2018-06-04T04:14:20.103Z,16.91
2018-06-04T04:14:45.553Z,16.86
2018-06-04T04:15:11.016Z,16.94
2018-06-04T04:15:36.507Z,16.91
2018-06-04T04:16:01.982Z,16.93
2018-06-04T04:16:27.452Z,16.91
2018-06-04T04:16:52.915Z,16.91
2018-06-04T04:17:18.382Z,16.93
2018-06-04T04:17:43.881Z,16.89
2018-06-04T04:18:09.305Z,16.96
2018-06-04T04:18:34.743Z,17.01
2018-06-04T04:19:00.254Z,16.93
2018-06-04T04:19:25.706Z,16.94
2018-06-04T04:19:51.229Z,17.08
2018-06-04T04:20:16.677Z,16.93
2018-06-04T04:20:42.106Z,16.99
2018-06-04T04:21:07.580Z,17.04
2018-06-04T04:21:33.065Z,17.01
2018-06-04T04:21:58.530Z,16.97
2018-06-04T04:22:23.991Z,16.99
2018-06-04T04:22:49.476Z,17.02
2018-06-04T04:23:14.960Z,17.05
2018-06-04T04:23:40.403Z,17.09
2018-06-04T04:24:05.892Z,17.04
2018-06-04T04:24:31.342Z,17.09
2018-06-04T04:24:56.822Z,17.06
2018-06-04T04:25:22.314Z,17.05
2018-06-04T04:25:47.774Z,17.15
2018-06-04T04:26:13.241Z,17.12
2018-06-04T04:26:38.678Z,17.09
2018-06-04T04:27:04.142Z,17.2
2018-06-04T04:27:29.567Z,17.16
2018-06-04T04:27:55.076Z,17.11
2018-06-04T04:28:20.547Z,17.14
2018-06-04T04:28:46.007Z,17.14
2018-06-04T04:29:11.489Z,17.14
2018-06-04T04:29:36.978Z,17.26
2018-06-04T04:30:02.449Z,17.15
2018-06-04T04:30:27.932Z,17.2
2018-06-04T04:30:53.452Z,17.26
2018-06-04T04:31:18.948Z,17.24
2018-06-04T04:31:44.412Z,17.26
2018-06-04T04:32:09.813Z,17.26
2018-06-04T04:32:35.303Z,17.38
2018-06-04T04:33:00.817Z,17.3
2018-06-04T04:33:26.278Z,17.36
2018-06-04T04:33:51.763Z,17.27
2018-06-04T04:34:17.223Z,17.3
2018-06-04T04:34:42.778Z,17.36
2018-06-04T04:35:08.257Z,17.42
2018-06-04T04:35:33.723Z,17.34
2018-06-04T04:35:59.158Z,17.34
2018-06-04T04:36:24.623Z,17.46
2018-06-04T04:36:50.063Z,17.51
2018-06-04T04:37:15.510Z,17.49
2018-06-04T04:37:41.019Z,17.59
2018-06-04T04:38:06.449Z,17.68
2018-06-04T04:38:31.874Z,17.71
2018-06-04T04:38:57.389Z,17.7
2018-06-04T04:39:22.850Z,17.8
2018-06-04T04:39:48.391Z,17.82
2018-06-04T04:40:13.877Z,17.85
2018-06-04T04:40:39.378Z,17.9
2018-06-04T04:41:04.839Z,17.95
2018-06-04T04:41:30.316Z,18.04
2018-06-04T04:41:55.750Z,18.11
2018-06-04T04:42:21.184Z,18.16
2018-06-04T04:42:46.723Z,18.1
2018-06-04T04:43:12.137Z,18.19
2018-06-04T04:43:37.621Z,18.23
2018-06-04T04:44:03.088Z,18.2
2018-06-04T04:44:28.574Z,18.34
2018-06-04T04:44:54.007Z,18.38
2018-06-04T04:45:19.465Z,18.38
2018-06-04T04:45:44.919Z,18.43
2018-06-04T04:46:10.485Z,18.43
2018-06-04T04:46:35.907Z,18.56
2018-06-04T04:47:01.370Z,18.52
2018-06-04T04:47:26.803Z,18.55
2018-06-04T04:47:52.312Z,18.62
2018-06-04T04:48:17.784Z,18.65
2018-06-04T04:48:43.356Z,18.59
2018-06-04T04:49:08.837Z,18.65
2018-06-04T04:49:34.268Z,18.65
2018-06-04T04:49:59.784Z,18.63
2018-06-04T04:50:25.229Z,18.73
2018-06-04T04:50:50.738Z,18.81
2018-06-04T04:51:16.150Z,18.7
2018-06-04T04:51:41.669Z,18.74
2018-06-04T04:52:07.154Z,18.86
2018-06-04T04:52:32.648Z,18.89
2018-06-04T04:52:58.103Z,18.8
2018-06-04T04:53:23.641Z,18.83
2018-06-04T04:53:49.048Z,18.93
2018-06-04T04:54:14.534Z,18.86
2018-06-04T04:54:39.983Z,18.86
2018-06-04T04:55:05.516Z,18.88
2018-06-04T04:55:30.968Z,18.99
2018-06-04T04:55:56.437Z,19.07
2018-06-04T04:56:21.855Z,18.99
2018-06-04T04:56:47.320Z,19.02
2018-06-04T04:57:12.779Z,19
2018-06-04T04:57:38.275Z,19
2018-06-04T04:58:03.697Z,19.08
2018-06-04T04:58:29.162Z,19.14
2018-06-04T04:58:54.699Z,19.15
2018-06-04T04:59:20.184Z,19.18
2018-06-04T04:59:45.619Z,19.18
2018-06-04T05:00:11.101Z,19.19
2018-06-04T05:00:59.409Z,19.27
2018-06-04T05:01:24.914Z,19.21
2018-06-04T05:01:50.348Z,19.34
2018-06-04T05:02:15.804Z,19.29
2018-06-04T05:02:41.322Z,19.33
2018-06-04T05:03:06.750Z,19.34
2018-06-04T05:03:32.227Z,19.34
2018-06-04T05:03:57.723Z,19.41
2018-06-04T05:04:23.173Z,19.39
2018-06-04T05:04:48.703Z,19.31
2018-06-04T05:05:14.068Z,19.33
2018-06-04T05:05:39.780Z,19.39
2018-06-04T05:06:05.559Z,19.36
2018-06-04T05:06:31.220Z,19.31
2018-06-04T05:06:56.868Z,19.45
2018-06-04T05:07:22.812Z,19.36
2018-06-04T05:07:48.539Z,19.34
2018-06-04T05:08:14.221Z,19.34
2018-06-04T05:08:39.917Z,19.41
2018-06-04T05:09:06.130Z,19.51
2018-06-04T05:09:31.530Z,19.49
2018-06-04T05:09:57.242Z,19.49
2018-06-04T05:10:23.013Z,19.49
2018-06-04T05:10:48.560Z,19.56
2018-06-04T05:11:14.260Z,19.62
2018-06-04T05:11:39.572Z,19.54
2018-06-04T05:12:05.052Z,19.56
2018-06-04T05:12:30.561Z,19.58
2018-06-04T05:12:56.343Z,19.59
2018-06-04T05:13:21.735Z,19.62
2018-06-04T05:13:47.226Z,19.62
2018-06-04T05:14:12.770Z,19.56
2018-06-04T05:14:38.186Z,19.64
2018-06-04T05:15:03.725Z,19.69
2018-06-04T05:15:29.143Z,19.62
2018-06-04T05:15:54.653Z,19.59
2018-06-04T05:16:20.193Z,19.55
2018-06-04T05:16:45.613Z,19.66
2018-06-04T05:17:11.091Z,19.69
2018-06-04T05:17:36.642Z,19.66
2018-06-04T05:18:02.192Z,19.66
2018-06-04T05:18:27.617Z,19.62
2018-06-04T05:18:53.194Z,19.7
2018-06-04T05:19:18.586Z,19.66
2018-06-04T05:19:44.060Z,19.7
2018-06-04T05:20:09.557Z,19.73
2018-06-04T05:20:34.985Z,19.79
2018-06-04T05:21:00.506Z,19.84
2018-06-04T05:21:25.992Z,19.85
2018-06-04T05:21:51.466Z,19.82
2018-06-04T05:22:16.941Z,19.84
2018-06-04T05:22:42.405Z,19.79
2018-06-04T05:23:51.105Z,19.96
2018-06-04T05:24:16.557Z,19.96
2018-06-04T05:24:42.012Z,19.99
2018-06-04T05:25:35.445Z,20.03
2018-06-04T05:26:00.931Z,20.03
2018-06-04T05:26:26.509Z,20.06
2018-06-04T05:26:51.858Z,20.07
2018-06-04T05:27:17.360Z,20.1
2018-06-04T05:27:42.843Z,20.11
2018-06-04T05:28:08.264Z,20.16
2018-06-04T05:28:33.755Z,20.22
2018-06-04T05:28:59.247Z,20.21
2018-06-04T05:29:24.708Z,20.24
2018-06-04T05:29:50.220Z,20.26
2018-06-04T05:30:15.729Z,20.24
2018-06-04T05:30:41.219Z,20.26
2018-06-04T05:31:06.680Z,20.32
2018-06-04T05:31:32.211Z,20.32
2018-06-04T05:31:57.673Z,20.37
2018-06-04T05:32:23.141Z,20.44
2018-06-04T05:32:48.636Z,20.41
2018-06-04T05:33:14.136Z,20.39
2018-06-04T05:33:39.640Z,20.39
2018-06-04T05:34:05.129Z,20.51
2018-06-04T05:34:30.593Z,20.52
2018-06-04T05:34:56.091Z,20.58
2018-06-04T05:35:21.562Z,20.63
2018-06-04T05:35:47.016Z,20.6
2018-06-04T05:36:12.490Z,20.63
2018-06-04T05:36:37.992Z,20.59
2018-06-04T05:37:03.490Z,20.66
2018-06-04T05:37:28.885Z,20.8
2018-06-04T05:37:54.407Z,20.67
2018-06-04T05:38:19.885Z,20.7
2018-06-04T05:38:45.382Z,20.69
2018-06-04T05:39:10.848Z,20.75
2018-06-04T05:39:36.272Z,20.82
2018-06-04T05:40:01.771Z,20.85
2018-06-04T05:40:27.214Z,20.81
2018-06-04T05:40:52.703Z,20.87
2018-06-04T05:41:18.261Z,20.92
2018-06-04T05:41:43.697Z,20.97
2018-06-04T05:42:09.128Z,20.95
2018-06-04T05:42:34.580Z,20.92
2018-06-04T05:43:00.072Z,20.96
2018-06-04T05:43:25.545Z,21.09
2018-06-04T05:43:51.046Z,21.06
2018-06-04T05:44:16.452Z,21.07
2018-06-04T05:44:42.002Z,21.11
2018-06-04T05:45:07.518Z,21.12
2018-06-04T05:45:32.926Z,21.2
2018-06-04T05:45:58.474Z,21.21
2018-06-04T05:46:23.993Z,21.2
2018-06-04T05:46:49.403Z,21.27
2018-06-04T05:47:14.918Z,21.27
2018-06-04T05:47:40.350Z,21.27
2018-06-04T05:48:05.829Z,21.35
2018-06-04T05:48:31.303Z,21.27
2018-06-04T05:48:56.748Z,21.32
2018-06-04T05:49:22.296Z,21.37
2018-06-04T05:49:47.702Z,21.27
2018-06-04T05:50:13.227Z,21.24
2018-06-04T05:50:38.624Z,21.35
2018-06-04T05:51:04.143Z,21.36
2018-06-04T05:51:29.571Z,21.35
2018-06-04T05:51:55.045Z,21.42
2018-06-04T05:52:20.508Z,21.4
2018-06-04T05:52:46.052Z,21.43
2018-06-04T05:53:11.465Z,21.51
2018-06-04T05:53:36.948Z,21.45
2018-06-04T05:54:02.414Z,21.4
2018-06-04T05:54:27.898Z,21.46
2018-06-04T05:54:53.390Z,21.5
2018-06-04T05:55:18.864Z,21.51
2018-06-04T05:55:44.335Z,21.51
2018-06-04T05:56:09.863Z,21.55
2018-06-04T05:56:35.305Z,21.6
2018-06-04T05:57:00.789Z,21.6
2018-06-04T05:57:26.255Z,21.67
2018-06-04T05:57:51.669Z,21.66
2018-06-04T05:58:17.151Z,21.58
2018-06-04T05:58:42.668Z,21.66
2018-06-04T05:59:08.217Z,21.69
2018-06-04T05:59:33.606Z,21.72
2018-06-04T05:59:59.195Z,21.72
2018-06-04T06:00:24.637Z,21.72
2018-06-04T06:00:50.057Z,21.77
2018-06-04T06:01:15.665Z,21.73
2018-06-04T06:01:41.142Z,21.73
2018-06-04T06:02:06.546Z,21.75
2018-06-04T06:02:32.046Z,21.79
2018-06-04T06:02:57.533Z,21.75
2018-06-04T06:03:22.970Z,21.83
2018-06-04T06:03:48.529Z,21.76
2018-06-04T06:04:13.934Z,21.83
2018-06-04T06:04:39.454Z,21.88
2018-06-04T06:05:04.905Z,21.93
2018-06-04T06:05:30.411Z,21.95
2018-06-04T06:05:55.854Z,22
2018-06-04T06:06:21.491Z,22.04
2018-06-04T06:06:46.969Z,21.98
2018-06-04T06:07:12.415Z,22.1
2018-06-04T06:07:37.875Z,22.11
2018-06-04T06:08:03.376Z,22.08
2018-06-04T06:08:28.901Z,22.11
2018-06-04T06:08:54.364Z,22.2
2018-06-04T06:09:19.891Z,22.35
2018-06-04T06:09:45.377Z,22.33
2018-06-04T06:10:10.818Z,22.33
2018-06-04T06:10:36.340Z,22.35
2018-06-04T06:11:01.775Z,22.39
2018-06-04T06:11:27.265Z,22.38
2018-06-04T06:11:52.791Z,22.36
2018-06-04T06:12:18.280Z,22.35
2018-06-04T06:12:43.771Z,22.44
2018-06-04T06:13:09.249Z,22.45
2018-06-04T06:13:34.783Z,22.43
2018-06-04T06:14:00.203Z,22.47
2018-06-04T06:14:25.710Z,22.48
2018-06-04T06:14:51.138Z,22.54
2018-06-04T06:15:16.607Z,22.54
2018-06-04T06:15:42.102Z,22.57
2018-06-04T06:16:07.593Z,22.53
2018-06-04T06:16:33.144Z,22.57
2018-06-04T06:16:58.569Z,22.62
2018-06-04T06:17:24.073Z,22.62
2018-06-04T06:17:49.589Z,22.65
2018-06-04T06:18:15.026Z,22.66
2018-06-04T06:18:40.508Z,22.7
2018-06-04T06:19:05.943Z,22.69
2018-06-04T06:19:31.445Z,22.66
2018-06-04T06:19:56.913Z,22.76
2018-06-04T06:20:22.414Z,22.81
2018-06-04T06:20:47.857Z,22.78
2018-06-04T06:21:13.387Z,22.81
2018-06-04T06:21:38.811Z,22.84
2018-06-04T06:22:04.299Z,22.85
2018-06-04T06:22:29.776Z,22.96
2018-06-04T06:22:55.229Z,22.93
2018-06-04T06:23:20.693Z,23
2018-06-04T06:23:46.162Z,22.99
2018-06-04T06:24:11.670Z,23.03
2018-06-04T06:24:37.223Z,23.09
2018-06-04T06:25:02.666Z,23.09
2018-06-04T06:25:28.161Z,23.15
2018-06-04T06:25:53.568Z,23.18
2018-06-04T06:26:19.026Z,23.15
2018-06-04T06:26:44.560Z,23.08
2018-06-04T06:27:09.950Z,23.21
2018-06-04T06:27:35.407Z,23.12
2018-06-04T06:28:00.898Z,23.17
2018-06-04T06:28:26.413Z,23.12
2018-06-04T06:28:51.820Z,23.13
2018-06-04T06:29:17.278Z,23.2
2018-06-04T06:29:42.805Z,23.23
2018-06-04T06:30:08.255Z,23.08
2018-06-04T06:30:33.715Z,23.2
2018-06-04T06:30:59.168Z,23.21
2018-06-04T06:31:24.685Z,23.23
2018-06-04T06:31:50.135Z,23.23
2018-06-04T06:32:15.660Z,23.09
2018-06-04T06:32:41.222Z,23.23
2018-06-04T06:33:06.695Z,23.21
2018-06-04T06:33:32.158Z,23.12
2018-06-04T06:33:57.642Z,23.21
2018-06-04T06:34:23.130Z,23.21
2018-06-04T06:34:48.591Z,23.23
2018-06-04T06:35:14.023Z,23.27
2018-06-04T06:35:39.522Z,23.31
2018-06-04T06:36:05.022Z,23.23
2018-06-04T06:36:30.509Z,23.21
2018-06-04T06:36:55.988Z,23.23
2018-06-04T06:37:23.065Z,23.25
2018-06-04T06:37:48.569Z,23.37
2018-06-04T06:38:14.044Z,23.25
2018-06-04T06:38:39.518Z,23.43
2018-06-04T06:39:05.054Z,23.46
2018-06-04T06:39:30.515Z,23.44
2018-06-04T06:39:56.008Z,23.43
2018-06-04T06:40:22.373Z,23.5
2018-06-04T06:40:47.869Z,23.5
2018-06-04T06:41:13.470Z,23.43
2018-06-04T06:41:39.069Z,23.47
2018-06-04T06:42:04.653Z,23.34
2018-06-04T06:42:30.224Z,23.5
2018-06-04T06:42:55.723Z,23.48
2018-06-04T06:43:21.189Z,23.36
2018-06-04T06:43:46.703Z,23.51
2018-06-04T06:44:12.145Z,23.43
2018-06-04T06:44:37.660Z,23.47
2018-06-04T06:45:03.157Z,23.48
2018-06-04T06:45:28.689Z,23.51
2018-06-04T06:45:54.161Z,23.55
2018-06-04T06:46:19.608Z,23.65
2018-06-04T06:46:45.075Z,23.66
2018-06-04T06:47:10.562Z,23.68
2018-06-04T06:47:36.010Z,23.63
2018-06-04T06:48:01.692Z,23.68
2018-06-04T06:48:27.143Z,23.68
2018-06-04T06:48:52.617Z,23.68
2018-06-04T06:49:18.121Z,23.71
2018-06-04T06:49:43.667Z,23.71
2018-06-04T06:50:09.158Z,23.77
2018-06-04T06:50:34.855Z,23.83
2018-06-04T06:51:00.638Z,23.84
2018-06-04T06:51:26.804Z,23.86
2018-06-04T06:51:52.202Z,23.86
2018-06-04T06:52:17.644Z,24.02
2018-06-04T06:52:43.158Z,24.02
2018-06-04T06:53:08.664Z,23.99
2018-06-04T06:53:34.099Z,24.03
2018-06-04T06:53:59.668Z,24.05
2018-06-04T06:54:25.273Z,24.11
2018-06-04T06:54:50.797Z,24.18
2018-06-04T06:55:16.301Z,24.08
2018-06-04T06:55:41.829Z,24.21
2018-06-04T06:56:07.429Z,24.18
2018-06-04T06:56:32.967Z,24.17
2018-06-04T06:56:58.411Z,24.13
2018-06-04T06:57:23.961Z,24.29
2018-06-04T06:57:49.424Z,24.29
2018-06-04T06:58:14.895Z,24.23
2018-06-04T06:58:40.354Z,24.28
2018-06-04T06:59:05.790Z,24.24
2018-06-04T06:59:31.255Z,24.29
2018-06-04T06:59:56.699Z,24.26
2018-06-04T07:00:22.179Z,24.32
2018-06-04T07:00:47.661Z,24.4
2018-06-04T07:01:13.081Z,24.4
2018-06-04T07:01:38.616Z,24.42
2018-06-04T07:02:04.132Z,24.39
2018-06-04T07:02:29.494Z,24.45
2018-06-04T07:02:54.958Z,24.42
2018-06-04T07:03:20.470Z,24.48
2018-06-04T07:03:45.980Z,24.53
2018-06-04T07:04:11.451Z,24.55
2018-06-04T07:04:36.940Z,24.51
2018-06-04T07:05:02.387Z,24.54
2018-06-04T07:05:27.895Z,24.47
2018-06-04T07:05:53.375Z,24.54
2018-06-04T07:06:18.871Z,24.55
2018-06-04T07:06:44.345Z,24.6
2018-06-04T07:07:09.810Z,24.55
2018-06-04T07:07:35.353Z,24.61
2018-06-04T07:08:00.837Z,24.63
2018-06-04T07:08:26.314Z,24.57
2018-06-04T07:08:51.709Z,24.66
2018-06-04T07:09:17.224Z,24.63
2018-06-04T07:09:42.739Z,24.65
2018-06-04T07:10:08.166Z,24.68
2018-06-04T07:10:33.633Z,24.65
2018-06-04T07:10:59.157Z,24.65
2018-06-04T07:11:24.696Z,24.65
2018-06-04T07:11:50.128Z,24.63
2018-06-04T07:12:15.601Z,24.66
2018-06-04T07:12:41.127Z,24.68
2018-06-04T07:13:06.906Z,24.65
2018-06-04T07:13:32.392Z,24.66
2018-06-04T07:13:57.896Z,24.7
2018-06-04T07:14:23.483Z,24.63
2018-06-04T07:14:48.928Z,24.69
2018-06-04T07:15:15.341Z,24.63
2018-06-04T07:15:41.047Z,24.63
2018-06-04T07:16:06.591Z,24.65
2018-06-04T07:16:32.076Z,24.66
2018-06-04T07:16:57.550Z,24.7
2018-06-04T07:17:23.146Z,24.78
2018-06-04T07:17:48.630Z,24.74
2018-06-04T07:18:14.556Z,24.86
2018-06-04T07:18:39.881Z,24.78
2018-06-04T07:19:05.402Z,24.91
2018-06-04T07:19:30.845Z,24.81
2018-06-04T07:19:56.313Z,24.81
2018-06-04T07:20:21.990Z,24.89
2018-06-04T07:20:48.452Z,24.88
2018-06-04T07:21:15.992Z,24.98
2018-06-04T07:21:43.134Z,24.85
2018-06-04T07:22:08.452Z,24.96
2018-06-04T07:22:33.995Z,25.04
2018-06-04T07:23:00.185Z,25.07
2018-06-04T07:23:25.563Z,24.99
2018-06-04T07:23:51.200Z,24.99
2018-06-04T07:24:16.792Z,25.04
2018-06-04T07:24:42.610Z,25.08
2018-06-04T07:25:08.100Z,25.13
2018-06-04T07:25:33.732Z,25.18
2018-06-04T07:26:00.020Z,25.16
2018-06-04T07:26:25.359Z,25.16
2018-06-04T07:26:51.040Z,25.1
2018-06-04T07:27:16.571Z,25.26
2018-06-04T07:27:42.042Z,25.17
2018-06-04T07:28:07.614Z,25.21
2018-06-04T07:28:33.255Z,25.23
2018-06-04T07:28:58.716Z,25.22
2018-06-04T07:29:24.259Z,25.26
2018-06-04T07:29:49.755Z,25.23
2018-06-04T07:30:15.234Z,25.18
2018-06-04T07:30:40.665Z,25.22
2018-06-04T07:31:06.144Z,25.28
2018-06-04T07:31:31.694Z,25.26
2018-06-04T07:31:57.110Z,25.23
2018-06-04T07:32:22.717Z,25.32
2018-06-04T07:32:48.220Z,25.29
2018-06-04T07:33:13.707Z,25.35
2018-06-04T07:33:39.235Z,25.4
2018-06-04T07:34:04.715Z,25.4
2018-06-04T07:34:30.136Z,25.44
2018-06-04T07:34:55.833Z,25.46
2018-06-04T07:35:21.241Z,25.46
2018-06-04T07:35:46.713Z,25.54
2018-06-04T07:36:12.189Z,25.5
2018-06-04T07:36:37.729Z,25.5
2018-06-04T07:37:03.206Z,25.59
2018-06-04T07:37:28.786Z,25.58
2018-06-04T07:37:54.190Z,25.63
2018-06-04T07:38:19.724Z,25.68
2018-06-04T07:38:45.414Z,25.72
2018-06-04T07:39:10.830Z,25.85
2018-06-04T07:39:39.209Z,25.75
2018-06-04T07:40:08.278Z,25.83
2018-06-04T07:40:33.735Z,25.77
2018-06-04T07:40:59.263Z,25.81
2018-06-04T07:41:24.729Z,25.84
2018-06-04T07:41:50.167Z,25.96
2018-06-04T07:42:15.679Z,25.96
2018-06-04T07:42:41.103Z,25.96
2018-06-04T07:43:06.643Z,25.99
2018-06-04T07:43:32.104Z,26.02
2018-06-04T07:43:58.541Z,26.03
2018-06-04T07:44:25.402Z,26.02
2018-06-04T07:44:51.458Z,26.09
2018-06-04T07:45:16.573Z,26.1
2018-06-04T07:45:41.928Z,26.13
2018-06-04T07:46:07.361Z,26.15
2018-06-04T07:46:32.868Z,26.18
2018-06-04T07:46:58.359Z,26.16
2018-06-04T07:47:23.857Z,26.22
2018-06-04T07:47:49.266Z,26.29
2018-06-04T07:48:14.767Z,26.25
2018-06-04T07:48:40.203Z,26.25
2018-06-04T07:49:05.711Z,26.29
2018-06-04T07:49:31.133Z,26.34
2018-06-04T07:49:56.760Z,26.38
2018-06-04T07:50:22.303Z,26.45
2018-06-04T07:50:47.824Z,26.45
2018-06-04T07:51:13.291Z,26.59
2018-06-04T07:51:38.820Z,26.53
2018-06-04T07:52:04.310Z,26.63
2018-06-04T07:52:29.768Z,26.62
2018-06-04T07:52:55.323Z,26.65
2018-06-04T07:53:20.780Z,26.7
2018-06-04T07:53:46.195Z,26.74
2018-06-04T07:54:11.692Z,26.68
2018-06-04T07:54:37.138Z,26.77
2018-06-04T07:55:02.599Z,26.75
2018-06-04T07:55:28.075Z,26.81
2018-06-04T07:55:53.531Z,26.93
2018-06-04T07:56:19.021Z,26.93
2018-06-04T07:56:44.507Z,26.93
2018-06-04T07:57:10.053Z,26.93
2018-06-04T07:57:35.534Z,26.9
2018-06-04T07:58:01.018Z,26.93
2018-06-04T07:58:26.533Z,26.96
2018-06-04T07:58:52.006Z,26.95
2018-06-04T07:59:17.545Z,26.95
2018-06-04T07:59:43.243Z,27.05
2018-06-04T08:00:08.746Z,27.1
2018-06-04T08:00:34.248Z,27.08
2018-06-04T08:00:59.724Z,27.1
2018-06-04T08:01:25.234Z,27.05
2018-06-04T08:01:50.675Z,27.02
2018-06-04T08:02:16.233Z,27.07
2018-06-04T08:02:41.653Z,27.08
2018-06-04T08:03:07.124Z,27.2
2018-06-04T08:03:32.665Z,27.17
2018-06-04T08:03:58.178Z,27.2
2018-06-04T08:04:23.669Z,27.18
2018-06-04T08:04:49.170Z,27.18
2018-06-04T08:05:14.543Z,27.2
2018-06-04T08:05:40.025Z,27.21
2018-06-04T08:06:05.570Z,27.25
2018-06-04T08:06:31.120Z,27.25
2018-06-04T08:06:56.452Z,27.22
2018-06-04T08:07:21.934Z,27.26
2018-06-04T08:07:47.449Z,27.27
2018-06-04T08:08:12.886Z,27.32
2018-06-04T08:08:38.384Z,27.35
2018-06-04T08:09:03.842Z,27.44
2018-06-04T08:09:29.340Z,27.27
2018-06-04T08:09:54.813Z,27.29
2018-06-04T08:10:20.412Z,27.44
2018-06-04T08:10:45.829Z,27.36
2018-06-04T08:11:11.253Z,27.35
2018-06-04T08:11:36.792Z,27.4
2018-06-04T08:12:02.275Z,27.45
2018-06-04T08:12:27.774Z,27.44
2018-06-04T08:12:53.238Z,27.51
2018-06-04T08:13:18.756Z,27.45
2018-06-04T08:13:44.152Z,27.44
2018-06-04T08:14:09.663Z,27.42
2018-06-04T08:14:35.076Z,27.4
2018-06-04T08:15:00.608Z,27.33
2018-06-04T08:15:26.063Z,27.39
2018-06-04T08:15:51.578Z,27.37
2018-06-04T08:16:17.022Z,27.35
2018-06-04T08:16:42.460Z,27.35
2018-06-04T08:17:07.912Z,27.45
2018-06-04T08:17:33.449Z,27.37
2018-06-04T08:17:58.984Z,27.3
2018-06-04T08:18:24.393Z,27.39
2018-06-04T08:18:49.909Z,27.33
2018-06-04T08:19:15.382Z,27.3
2018-06-04T08:19:40.864Z,27.32
2018-06-04T08:20:06.325Z,27.37
2018-06-04T08:20:31.836Z,27.35
2018-06-04T08:20:57.318Z,27.27
2018-06-04T08:21:22.815Z,27.26
2018-06-04T08:21:48.300Z,27.25
2018-06-04T08:22:13.787Z,27.22
2018-06-04T08:22:39.411Z,27.17
2018-06-04T08:23:04.858Z,27.2
2018-06-04T08:23:30.348Z,27.2
2018-06-04T08:23:55.955Z,27.17
2018-06-04T08:24:21.259Z,27.12
2018-06-04T08:24:47.000Z,27.22
2018-06-04T08:25:12.348Z,27.25
2018-06-04T08:25:37.827Z,27.3
2018-06-04T08:26:41.803Z,27.3
2018-06-04T08:27:07.592Z,27.37
2018-06-04T08:27:33.026Z,27.26
2018-06-04T08:27:58.498Z,27.39
2018-06-04T08:28:24.047Z,27.36
2018-06-04T08:28:49.518Z,27.4
2018-06-04T08:29:15.072Z,27.42
2018-06-04T08:29:40.876Z,27.39
2018-06-04T08:30:06.129Z,27.44
2018-06-04T08:30:31.701Z,27.44
2018-06-04T08:30:57.472Z,27.45
2018-06-04T08:31:23.079Z,27.45
2018-06-04T08:31:48.650Z,27.4
2018-06-04T08:32:14.908Z,27.33
2018-06-04T08:32:40.868Z,27.37
2018-06-04T08:33:06.371Z,27.47
2018-06-04T08:33:31.760Z,27.44
2018-06-04T08:33:57.260Z,27.47
2018-06-04T08:34:22.773Z,27.48
2018-06-04T08:34:48.251Z,27.49
2018-06-04T08:35:13.715Z,27.52
2018-06-04T08:35:39.219Z,27.49
2018-06-04T08:36:04.907Z,27.47
2018-06-04T08:36:32.016Z,27.44
2018-06-04T08:36:58.589Z,27.48
2018-06-04T08:37:24.108Z,27.51
2018-06-04T08:37:49.542Z,27.49
2018-06-04T08:38:15.006Z,27.55
2018-06-04T08:38:40.496Z,27.63
2018-06-04T08:39:05.990Z,27.77
2018-06-04T08:39:31.480Z,27.68
2018-06-04T08:39:57.179Z,27.8
2018-06-04T08:40:23.417Z,27.8
2018-06-04T08:40:48.720Z,27.8
2018-06-04T08:41:14.272Z,27.78
2018-06-04T08:41:39.768Z,27.73
2018-06-04T08:42:05.344Z,27.67
2018-06-04T08:42:30.633Z,27.64
2018-06-04T08:42:56.110Z,27.7
2018-06-04T08:43:21.682Z,27.67
2018-06-04T08:43:47.115Z,27.63
2018-06-04T08:44:12.505Z,27.71
2018-06-04T08:44:38.027Z,27.7
2018-06-04T08:45:03.504Z,27.67
2018-06-04T08:45:28.969Z,27.73
2018-06-04T08:45:54.470Z,27.73
2018-06-04T08:46:19.907Z,27.74
2018-06-04T08:46:45.374Z,27.82
2018-06-04T08:47:10.802Z,27.86
2018-06-04T08:47:36.262Z,27.89
2018-06-04T08:48:01.728Z,27.92
2018-06-04T08:48:27.217Z,27.89
2018-06-04T08:48:52.703Z,27.93
2018-06-04T08:49:18.114Z,27.9
2018-06-04T08:49:43.648Z,27.9
2018-06-04T08:50:09.081Z,27.89
2018-06-04T08:50:34.527Z,27.8
2018-06-04T08:51:00.011Z,27.78
2018-06-04T08:51:25.509Z,27.7
2018-06-04T08:51:50.977Z,27.73
2018-06-04T08:52:16.422Z,27.55
2018-06-04T08:52:41.952Z,27.54
2018-06-04T08:53:07.417Z,27.42
2018-06-04T08:53:32.943Z,27.52
2018-06-04T08:53:58.452Z,27.44
2018-06-04T08:54:23.981Z,27.42
2018-06-04T08:54:49.308Z,27.42
2018-06-04T08:55:14.841Z,27.45
2018-06-04T08:55:40.302Z,27.35
2018-06-04T08:56:05.852Z,27.37
2018-06-04T08:56:31.313Z,27.33
2018-06-04T08:56:56.842Z,27.44
2018-06-04T08:57:22.274Z,27.4
2018-06-04T08:57:47.762Z,27.47
2018-06-04T08:58:13.454Z,27.4
2018-06-04T08:58:38.885Z,27.42
2018-06-04T08:59:04.330Z,27.39
2018-06-04T08:59:29.800Z,27.54
2018-06-04T08:59:55.355Z,27.54
2018-06-04T09:00:20.839Z,27.59
2018-06-04T09:00:46.381Z,27.58
2018-06-04T09:01:11.844Z,27.71
2018-06-04T09:01:37.364Z,27.7
2018-06-04T09:02:03.010Z,27.68
2018-06-04T09:02:28.421Z,27.75
2018-06-04T09:02:53.772Z,27.82
2018-06-04T09:03:19.297Z,27.71
2018-06-04T09:03:44.752Z,27.68
2018-06-04T09:04:10.234Z,27.86
2018-06-04T09:04:35.808Z,27.85
2018-06-04T09:05:01.420Z,27.82
2018-06-04T09:05:26.926Z,27.75
2018-06-04T09:05:52.381Z,27.71
2018-06-04T09:06:17.891Z,27.75
2018-06-04T09:06:43.397Z,27.64
2018-06-04T09:07:08.821Z,27.65
2018-06-04T09:07:34.441Z,27.73
2018-06-04T09:08:00.005Z,27.64
2018-06-04T09:08:25.527Z,27.68
2018-06-04T09:08:50.956Z,27.6
2018-06-04T09:09:16.436Z,27.54
2018-06-04T09:09:41.925Z,27.55
2018-06-04T09:10:07.448Z,27.48
2018-06-04T09:10:32.935Z,27.4
2018-06-04T09:10:58.358Z,27.36
2018-06-04T09:11:23.828Z,27.4
2018-06-04T09:11:49.304Z,27.36
2018-06-04T09:12:14.815Z,27.33
2018-06-04T09:12:40.224Z,27.39
2018-06-04T09:13:05.734Z,27.33
2018-06-04T09:13:31.176Z,27.32
2018-06-04T09:13:56.663Z,27.32
2018-06-04T09:14:22.141Z,27.32
2018-06-04T09:14:47.638Z,27.36
2018-06-04T09:15:13.080Z,27.39
2018-06-04T09:15:38.549Z,27.37
2018-06-04T09:16:04.053Z,27.3
2018-06-04T09:16:29.542Z,27.4
2018-06-04T09:16:55.092Z,27.4
2018-06-04T09:17:20.571Z,27.49
2018-06-04T09:17:45.996Z,27.52
2018-06-04T09:18:11.453Z,27.59
2018-06-04T09:18:36.975Z,27.64
2018-06-04T09:19:02.413Z,27.67
2018-06-04T09:19:27.934Z,27.77
2018-06-04T09:19:53.473Z,27.78
2018-06-04T09:20:18.949Z,27.85
2018-06-04T09:20:44.435Z,27.92
2018-06-04T09:21:09.850Z,27.87
2018-06-04T09:21:35.368Z,27.87
2018-06-04T09:22:00.870Z,27.86
2018-06-04T09:22:26.294Z,27.96
2018-06-04T09:22:51.725Z,27.96
2018-06-04T09:23:17.179Z,27.9
2018-06-04T09:23:42.689Z,27.96
2018-06-04T09:24:08.188Z,27.93
2018-06-04T09:24:33.657Z,27.93
2018-06-04T09:24:59.131Z,28
2018-06-04T09:25:24.601Z,27.95
2018-06-04T09:25:50.081Z,27.9
2018-06-04T09:26:15.554Z,27.87
2018-06-04T09:26:41.073Z,27.9
2018-06-04T09:27:06.496Z,27.82
2018-06-04T09:27:31.988Z,27.8
2018-06-04T09:27:57.520Z,27.93
2018-06-04T09:28:22.969Z,27.83
2018-06-04T09:28:48.475Z,27.83
2018-06-04T09:29:14.002Z,27.83
2018-06-04T09:29:39.401Z,27.86
2018-06-04T09:30:04.970Z,27.73
2018-06-04T09:30:30.419Z,27.67
2018-06-04T09:30:55.880Z,27.58
2018-06-04T09:31:21.377Z,27.45
2018-06-04T09:31:46.894Z,27.39
2018-06-04T09:32:12.444Z,27.37
2018-06-04T09:32:37.929Z,27.27
2018-06-04T09:33:03.388Z,27.21
2018-06-04T09:33:28.828Z,27.18
2018-06-04T09:33:54.347Z,27.2
2018-06-04T09:34:19.831Z,27.2
2018-06-04T09:34:45.320Z,27.18
2018-06-04T09:35:10.771Z,27.18
2018-06-04T09:35:36.259Z,27.18
2018-06-04T09:36:01.738Z,27.18
2018-06-04T09:36:27.190Z,27.26
2018-06-04T09:36:52.676Z,27.27
2018-06-04T09:37:18.161Z,27.32
2018-06-04T09:37:43.660Z,27.35
2018-06-04T09:38:09.172Z,27.42
2018-06-04T09:38:34.651Z,27.49
2018-06-04T09:39:00.112Z,27.58
2018-06-04T09:39:25.590Z,27.7
2018-06-04T09:39:51.127Z,27.73
2018-06-04T09:40:16.538Z,27.75
2018-06-04T09:40:42.039Z,27.87
2018-06-04T09:41:07.559Z,27.89
2018-06-04T09:41:33.015Z,27.96
2018-06-04T09:41:58.545Z,27.95